sensor_id;sensor_type;location;lat;lon;timestamp;P1;durP1;ratioP1;P2;durP2;ratioP2
12925;SDS011;6529;50.566;9.774;2023-11-19T00:00:26;0.53;;;0.50;;
12925;SDS011;6529;50.566;9.774;2023-11-19T00:02:52;0.50;;;0.50;;
12925;SDS011;6529;50.566;9.774;2023-11-19T00:05:17;0.53;;;0.50;;
12925;SDS011;6529;50.566;9.774;2023-11-19T00:07:43;0.50;;;0.50;;
12925;SDS011;6529;50.566;9.774;2023-11-19T00:10:13;0.50;;;0.50;;
12925;SDS011;6529;50.566;9.774;2023-11-19T00:12:40;0.80;;;0.60;;
12925;SDS011;6529;50.566;9.774;2023-11-19T00:15:07;1.00;;;0.63;;
12925;SDS011;6529;50.566;9.774;2023-11-19T00:17:42;0.60;;;0.60;;
12925;SDS011;6529;50.566;9.774;2023-11-19T00:20:19;0.80;;;0.80;;
12925;SDS011;6529;50.566;9.774;2023-11-19T00:22:47;0.93;;;0.60;;
12925;SDS011;6529;50.566;9.774;2023-11-19T00:25:19;0.80;;;0.80;;
12925;SDS011;6529;50.566;9.774;2023-11-19T00:27:46;0.80;;;0.80;;
12925;SDS011;6529;50.566;9.774;2023-11-19T00:30:12;0.70;;;0.70;;
12925;SDS011;6529;50.566;9.774;2023-11-19T00:32:38;0.70;;;0.70;;
12925;SDS011;6529;50.566;9.774;2023-11-19T00:35:07;0.80;;;0.80;;
12925;SDS011;6529;50.566;9.774;2023-11-19T00:37:35;0.60;;;0.60;;
12925;SDS011;6529;50.566;9.774;2023-11-19T00:40:00;0.80;;;0.80;;
12925;SDS011;6529;50.566;9.774;2023-11-19T00:42:30;1.27;;;0.70;;
12925;SDS011;6529;50.566;9.774;2023-11-19T00:44:56;1.37;;;0.87;;
12925;SDS011;6529;50.566;9.774;2023-11-19T00:47:22;1.47;;;0.70;;
12925;SDS011;6529;50.566;9.774;2023-11-19T00:49:48;0.80;;;0.80;;
12925;SDS011;6529;50.566;9.774;2023-11-19T00:52:14;0.80;;;0.80;;
12925;SDS011;6529;50.566;9.774;2023-11-19T00:54:40;0.80;;;0.80;;
12925;SDS011;6529;50.566;9.774;2023-11-19T00:57:06;1.30;;;0.90;;
12925;SDS011;6529;50.566;9.774;2023-11-19T00:59:31;0.90;;;0.90;;
12925;SDS011;6529;50.566;9.774;2023-11-19T01:01:57;0.93;;;0.90;;
12925;SDS011;6529;50.566;9.774;2023-11-19T01:04:27;0.80;;;0.80;;
12925;SDS011;6529;50.566;9.774;2023-11-19T01:06:54;0.90;;;0.90;;
12925;SDS011;6529;50.566;9.774;2023-11-19T01:09:19;1.27;;;1.00;;
12925;SDS011;6529;50.566;9.774;2023-11-19T01:11:45;0.80;;;0.80;;
12925;SDS011;6529;50.566;9.774;2023-11-19T01:14:10;1.10;;;1.00;;
12925;SDS011;6529;50.566;9.774;2023-11-19T01:16:36;0.93;;;0.90;;
12925;SDS011;6529;50.566;9.774;2023-11-19T01:19:01;1.50;;;1.10;;
12925;SDS011;6529;50.566;9.774;2023-11-19T01:21:29;0.93;;;0.93;;
12925;SDS011;6529;50.566;9.774;2023-11-19T01:23:55;1.30;;;1.20;;
12925;SDS011;6529;50.566;9.774;2023-11-19T01:26:22;2.23;;;0.90;;
12925;SDS011;6529;50.566;9.774;2023-11-19T01:28:47;1.30;;;1.20;;
12925;SDS011;6529;50.566;9.774;2023-11-19T01:31:16;1.37;;;1.20;;
12925;SDS011;6529;50.566;9.774;2023-11-19T01:33:42;1.30;;;1.20;;
12925;SDS011;6529;50.566;9.774;2023-11-19T01:36:08;1.67;;;1.30;;
12925;SDS011;6529;50.566;9.774;2023-11-19T01:38:34;1.10;;;1.00;;
12925;SDS011;6529;50.566;9.774;2023-11-19T01:41:01;1.13;;;1.03;;
12925;SDS011;6529;50.566;9.774;2023-11-19T01:43:38;1.63;;;1.10;;
12925;SDS011;6529;50.566;9.774;2023-11-19T01:46:06;1.20;;;1.10;;
12925;SDS011;6529;50.566;9.774;2023-11-19T01:48:34;1.40;;;1.10;;
12925;SDS011;6529;50.566;9.774;2023-11-19T01:51:01;1.30;;;1.20;;
12925;SDS011;6529;50.566;9.774;2023-11-19T01:53:28;1.10;;;1.00;;
12925;SDS011;6529;50.566;9.774;2023-11-19T01:55:55;0.90;;;0.90;;
12925;SDS011;6529;50.566;9.774;2023-11-19T01:58:22;1.00;;;0.97;;
12925;SDS011;6529;50.566;9.774;2023-11-19T02:00:48;1.10;;;1.00;;
12925;SDS011;6529;50.566;9.774;2023-11-19T02:03:14;1.20;;;1.10;;
12925;SDS011;6529;50.566;9.774;2023-11-19T02:05:40;1.53;;;1.10;;
12925;SDS011;6529;50.566;9.774;2023-11-19T02:08:06;0.93;;;0.90;;
12925;SDS011;6529;50.566;9.774;2023-11-19T02:10:32;1.50;;;1.40;;
12925;SDS011;6529;50.566;9.774;2023-11-19T02:12:58;1.30;;;1.20;;
12925;SDS011;6529;50.566;9.774;2023-11-19T02:15:24;1.60;;;1.50;;
12925;SDS011;6529;50.566;9.774;2023-11-19T02:17:51;1.40;;;1.30;;
12925;SDS011;6529;50.566;9.774;2023-11-19T02:20:16;1.30;;;1.20;;
12925;SDS011;6529;50.566;9.774;2023-11-19T02:22:45;2.50;;;1.53;;
12925;SDS011;6529;50.566;9.774;2023-11-19T02:25:17;1.50;;;1.40;;
12925;SDS011;6529;50.566;9.774;2023-11-19T02:27:54;1.77;;;1.67;;
12925;SDS011;6529;50.566;9.774;2023-11-19T02:30:23;1.70;;;1.60;;
12925;SDS011;6529;50.566;9.774;2023-11-19T02:32:51;2.20;;;1.80;;
12925;SDS011;6529;50.566;9.774;2023-11-19T02:35:22;2.30;;;1.70;;
12925;SDS011;6529;50.566;9.774;2023-11-19T02:37:48;2.37;;;1.70;;
12925;SDS011;6529;50.566;9.774;2023-11-19T02:40:14;3.23;;;1.63;;
12925;SDS011;6529;50.566;9.774;2023-11-19T02:42:40;1.70;;;1.60;;
12925;SDS011;6529;50.566;9.774;2023-11-19T02:45:06;1.63;;;1.53;;
12925;SDS011;6529;50.566;9.774;2023-11-19T02:47:33;1.70;;;1.53;;
12925;SDS011;6529;50.566;9.774;2023-11-19T02:49:58;2.00;;;1.90;;
12925;SDS011;6529;50.566;9.774;2023-11-19T02:52:24;1.90;;;1.80;;
12925;SDS011;6529;50.566;9.774;2023-11-19T02:54:50;2.07;;;1.87;;
12925;SDS011;6529;50.566;9.774;2023-11-19T02:57:16;1.93;;;1.83;;
12925;SDS011;6529;50.566;9.774;2023-11-19T02:59:44;2.20;;;2.00;;
12925;SDS011;6529;50.566;9.774;2023-11-19T03:02:10;2.03;;;1.83;;
12925;SDS011;6529;50.566;9.774;2023-11-19T03:04:37;2.30;;;1.90;;
12925;SDS011;6529;50.566;9.774;2023-11-19T03:07:06;1.70;;;1.60;;
12925;SDS011;6529;50.566;9.774;2023-11-19T03:09:34;1.90;;;1.70;;
12925;SDS011;6529;50.566;9.774;2023-11-19T03:12:00;1.83;;;1.73;;
12925;SDS011;6529;50.566;9.774;2023-11-19T03:14:26;2.00;;;1.90;;
12925;SDS011;6529;50.566;9.774;2023-11-19T03:16:52;2.20;;;2.00;;
12925;SDS011;6529;50.566;9.774;2023-11-19T03:19:18;2.60;;;2.10;;
12925;SDS011;6529;50.566;9.774;2023-11-19T03:21:43;2.40;;;2.00;;
12925;SDS011;6529;50.566;9.774;2023-11-19T03:24:09;2.10;;;2.00;;
12925;SDS011;6529;50.566;9.774;2023-11-19T03:26:37;2.40;;;2.20;;
12925;SDS011;6529;50.566;9.774;2023-11-19T03:29:03;2.17;;;1.97;;
12925;SDS011;6529;50.566;9.774;2023-11-19T03:31:28;2.50;;;2.30;;
12925;SDS011;6529;50.566;9.774;2023-11-19T03:33:54;2.80;;;2.17;;
12925;SDS011;6529;50.566;9.774;2023-11-19T03:36:20;2.33;;;2.13;;
12925;SDS011;6529;50.566;9.774;2023-11-19T03:38:45;2.10;;;1.90;;
12925;SDS011;6529;50.566;9.774;2023-11-19T03:41:14;2.10;;;1.90;;
12925;SDS011;6529;50.566;9.774;2023-11-19T03:43:41;3.07;;;1.80;;
12925;SDS011;6529;50.566;9.774;2023-11-19T03:46:17;2.40;;;1.80;;
12925;SDS011;6529;50.566;9.774;2023-11-19T03:48:42;1.57;;;1.47;;
12925;SDS011;6529;50.566;9.774;2023-11-19T03:51:08;1.43;;;1.33;;
12925;SDS011;6529;50.566;9.774;2023-11-19T03:53:34;1.50;;;1.40;;
12925;SDS011;6529;50.566;9.774;2023-11-19T03:56:00;1.60;;;1.50;;
12925;SDS011;6529;50.566;9.774;2023-11-19T03:58:26;1.83;;;1.73;;
12925;SDS011;6529;50.566;9.774;2023-11-19T04:00:51;1.70;;;1.60;;
12925;SDS011;6529;50.566;9.774;2023-11-19T04:03:17;1.60;;;1.50;;
12925;SDS011;6529;50.566;9.774;2023-11-19T04:05:44;2.27;;;1.60;;
12925;SDS011;6529;50.566;9.774;2023-11-19T04:08:10;2.07;;;1.80;;
12925;SDS011;6529;50.566;9.774;2023-11-19T04:10:35;1.80;;;1.70;;
12925;SDS011;6529;50.566;9.774;2023-11-19T04:13:01;1.80;;;1.70;;
12925;SDS011;6529;50.566;9.774;2023-11-19T04:15:27;1.60;;;1.50;;
12925;SDS011;6529;50.566;9.774;2023-11-19T04:17:52;2.37;;;1.97;;
12925;SDS011;6529;50.566;9.774;2023-11-19T04:20:18;1.90;;;1.70;;
12925;SDS011;6529;50.566;9.774;2023-11-19T04:22:43;1.60;;;1.50;;
12925;SDS011;6529;50.566;9.774;2023-11-19T04:25:09;1.60;;;1.50;;
12925;SDS011;6529;50.566;9.774;2023-11-19T04:27:36;1.67;;;1.57;;
12925;SDS011;6529;50.566;9.774;2023-11-19T04:30:01;1.87;;;1.40;;
12925;SDS011;6529;50.566;9.774;2023-11-19T04:32:28;1.50;;;1.40;;
12925;SDS011;6529;50.566;9.774;2023-11-19T04:34:54;1.50;;;1.40;;
12925;SDS011;6529;50.566;9.774;2023-11-19T04:37:19;1.40;;;1.30;;
12925;SDS011;6529;50.566;9.774;2023-11-19T04:39:45;1.20;;;1.10;;
12925;SDS011;6529;50.566;9.774;2023-11-19T04:42:11;1.30;;;1.20;;
12925;SDS011;6529;50.566;9.774;2023-11-19T04:44:37;1.40;;;1.30;;
12925;SDS011;6529;50.566;9.774;2023-11-19T04:47:03;2.13;;;1.20;;
12925;SDS011;6529;50.566;9.774;2023-11-19T04:49:28;1.30;;;1.20;;
12925;SDS011;6529;50.566;9.774;2023-11-19T04:51:55;1.93;;;1.40;;
12925;SDS011;6529;50.566;9.774;2023-11-19T04:54:21;1.63;;;1.53;;
12925;SDS011;6529;50.566;9.774;2023-11-19T04:56:46;2.00;;;1.80;;
12925;SDS011;6529;50.566;9.774;2023-11-19T04:59:12;1.90;;;1.80;;
12925;SDS011;6529;50.566;9.774;2023-11-19T05:01:37;2.27;;;2.07;;
12925;SDS011;6529;50.566;9.774;2023-11-19T05:04:03;2.30;;;2.10;;
12925;SDS011;6529;50.566;9.774;2023-11-19T05:06:29;2.30;;;2.10;;
12925;SDS011;6529;50.566;9.774;2023-11-19T05:08:56;2.33;;;2.13;;
12925;SDS011;6529;50.566;9.774;2023-11-19T05:11:23;2.27;;;2.07;;
12925;SDS011;6529;50.566;9.774;2023-11-19T05:13:48;2.10;;;1.90;;
12925;SDS011;6529;50.566;9.774;2023-11-19T05:16:15;1.83;;;1.73;;
12925;SDS011;6529;50.566;9.774;2023-11-19T05:18:42;1.70;;;1.60;;
12925;SDS011;6529;50.566;9.774;2023-11-19T05:21:08;1.70;;;1.60;;
12925;SDS011;6529;50.566;9.774;2023-11-19T05:23:33;1.67;;;1.57;;
12925;SDS011;6529;50.566;9.774;2023-11-19T05:26:01;1.40;;;1.30;;
12925;SDS011;6529;50.566;9.774;2023-11-19T05:28:27;1.60;;;1.50;;
12925;SDS011;6529;50.566;9.774;2023-11-19T05:30:52;1.70;;;1.60;;
12925;SDS011;6529;50.566;9.774;2023-11-19T05:33:18;1.87;;;1.77;;
12925;SDS011;6529;50.566;9.774;2023-11-19T05:35:43;2.00;;;1.90;;
12925;SDS011;6529;50.566;9.774;2023-11-19T05:38:09;2.00;;;1.90;;
12925;SDS011;6529;50.566;9.774;2023-11-19T05:40:35;3.90;;;2.00;;
12925;SDS011;6529;50.566;9.774;2023-11-19T05:43:00;2.37;;;2.17;;
12925;SDS011;6529;50.566;9.774;2023-11-19T05:45:26;2.87;;;2.57;;
12925;SDS011;6529;50.566;9.774;2023-11-19T05:47:52;3.20;;;2.90;;
12925;SDS011;6529;50.566;9.774;2023-11-19T05:50:17;3.23;;;2.80;;
12925;SDS011;6529;50.566;9.774;2023-11-19T05:52:43;3.40;;;3.10;;
12925;SDS011;6529;50.566;9.774;2023-11-19T05:55:09;3.70;;;3.20;;
12925;SDS011;6529;50.566;9.774;2023-11-19T05:57:38;4.43;;;4.00;;
12925;SDS011;6529;50.566;9.774;2023-11-19T06:00:05;4.33;;;3.80;;
12925;SDS011;6529;50.566;9.774;2023-11-19T06:02:34;3.77;;;3.47;;
12925;SDS011;6529;50.566;9.774;2023-11-19T06:05:02;4.10;;;3.70;;
12925;SDS011;6529;50.566;9.774;2023-11-19T06:07:30;4.90;;;4.40;;
12925;SDS011;6529;50.566;9.774;2023-11-19T06:09:56;3.73;;;3.43;;
12925;SDS011;6529;50.566;9.774;2023-11-19T06:12:21;4.70;;;3.97;;
12925;SDS011;6529;50.566;9.774;2023-11-19T06:14:47;4.50;;;4.10;;
12925;SDS011;6529;50.566;9.774;2023-11-19T06:17:12;4.00;;;3.63;;
12925;SDS011;6529;50.566;9.774;2023-11-19T06:19:38;4.50;;;4.10;;
12925;SDS011;6529;50.566;9.774;2023-11-19T06:22:04;4.53;;;4.13;;
12925;SDS011;6529;50.566;9.774;2023-11-19T06:24:29;5.27;;;4.33;;
12925;SDS011;6529;50.566;9.774;2023-11-19T06:26:55;4.43;;;4.03;;
12925;SDS011;6529;50.566;9.774;2023-11-19T06:29:21;4.27;;;3.87;;
12925;SDS011;6529;50.566;9.774;2023-11-19T06:31:46;4.40;;;4.00;;
12925;SDS011;6529;50.566;9.774;2023-11-19T06:34:15;4.47;;;4.07;;
12925;SDS011;6529;50.566;9.774;2023-11-19T06:36:41;4.07;;;3.67;;
12925;SDS011;6529;50.566;9.774;2023-11-19T06:39:08;3.77;;;3.37;;
12925;SDS011;6529;50.566;9.774;2023-11-19T06:41:34;3.43;;;3.13;;
12925;SDS011;6529;50.566;9.774;2023-11-19T06:43:59;3.70;;;3.40;;
12925;SDS011;6529;50.566;9.774;2023-11-19T06:46:25;3.30;;;3.00;;
12925;SDS011;6529;50.566;9.774;2023-11-19T06:48:50;3.63;;;2.63;;
12925;SDS011;6529;50.566;9.774;2023-11-19T06:51:16;3.07;;;2.80;;
12925;SDS011;6529;50.566;9.774;2023-11-19T06:53:42;3.67;;;2.97;;
12925;SDS011;6529;50.566;9.774;2023-11-19T06:56:22;3.37;;;3.00;;
12925;SDS011;6529;50.566;9.774;2023-11-19T06:58:49;2.80;;;2.60;;
12925;SDS011;6529;50.566;9.774;2023-11-19T07:01:18;2.60;;;2.40;;
12925;SDS011;6529;50.566;9.774;2023-11-19T07:03:45;3.00;;;2.57;;
12925;SDS011;6529;50.566;9.774;2023-11-19T07:06:11;3.00;;;2.40;;
12925;SDS011;6529;50.566;9.774;2023-11-19T07:08:38;2.37;;;2.17;;
12925;SDS011;6529;50.566;9.774;2023-11-19T07:11:04;2.90;;;2.33;;
12925;SDS011;6529;50.566;9.774;2023-11-19T07:13:29;2.50;;;2.30;;
12925;SDS011;6529;50.566;9.774;2023-11-19T07:15:56;2.57;;;2.37;;
12925;SDS011;6529;50.566;9.774;2023-11-19T07:18:21;2.63;;;2.43;;
12925;SDS011;6529;50.566;9.774;2023-11-19T07:20:47;3.37;;;2.20;;
12925;SDS011;6529;50.566;9.774;2023-11-19T07:23:13;3.20;;;2.40;;
12925;SDS011;6529;50.566;9.774;2023-11-19T07:25:41;3.13;;;2.70;;
12925;SDS011;6529;50.566;9.774;2023-11-19T07:28:08;3.20;;;2.80;;
12925;SDS011;6529;50.566;9.774;2023-11-19T07:30:34;2.80;;;2.53;;
12925;SDS011;6529;50.566;9.774;2023-11-19T07:33:00;2.43;;;2.03;;
12925;SDS011;6529;50.566;9.774;2023-11-19T07:35:28;3.23;;;2.30;;
12925;SDS011;6529;50.566;9.774;2023-11-19T07:37:55;4.70;;;2.20;;
12925;SDS011;6529;50.566;9.774;2023-11-19T07:40:22;2.90;;;2.07;;
12925;SDS011;6529;50.566;9.774;2023-11-19T07:42:48;3.03;;;2.00;;
12925;SDS011;6529;50.566;9.774;2023-11-19T07:45:13;2.20;;;2.00;;
12925;SDS011;6529;50.566;9.774;2023-11-19T07:47:39;3.13;;;2.00;;
12925;SDS011;6529;50.566;9.774;2023-11-19T07:50:05;2.90;;;1.80;;
12925;SDS011;6529;50.566;9.774;2023-11-19T07:52:31;2.00;;;1.80;;
12925;SDS011;6529;50.566;9.774;2023-11-19T07:54:56;2.60;;;1.73;;
12925;SDS011;6529;50.566;9.774;2023-11-19T07:57:22;4.67;;;2.57;;
12925;SDS011;6529;50.566;9.774;2023-11-19T07:59:49;2.60;;;2.00;;
12925;SDS011;6529;50.566;9.774;2023-11-19T08:02:14;2.70;;;2.00;;
12925;SDS011;6529;50.566;9.774;2023-11-19T08:04:40;3.53;;;2.53;;
12925;SDS011;6529;50.566;9.774;2023-11-19T08:07:09;2.80;;;2.03;;
12925;SDS011;6529;50.566;9.774;2023-11-19T08:09:36;3.00;;;2.00;;
12925;SDS011;6529;50.566;9.774;2023-11-19T08:12:02;3.83;;;2.23;;
12925;SDS011;6529;50.566;9.774;2023-11-19T08:14:28;3.00;;;2.57;;
12925;SDS011;6529;50.566;9.774;2023-11-19T08:16:54;3.93;;;2.27;;
12925;SDS011;6529;50.566;9.774;2023-11-19T08:19:19;2.33;;;2.10;;
12925;SDS011;6529;50.566;9.774;2023-11-19T08:21:45;3.93;;;2.40;;
12925;SDS011;6529;50.566;9.774;2023-11-19T08:24:11;3.50;;;2.40;;
12925;SDS011;6529;50.566;9.774;2023-11-19T08:26:36;4.53;;;2.50;;
12925;SDS011;6529;50.566;9.774;2023-11-19T08:29:02;4.40;;;2.50;;
12925;SDS011;6529;50.566;9.774;2023-11-19T08:31:28;3.03;;;2.20;;
12925;SDS011;6529;50.566;9.774;2023-11-19T08:33:53;3.37;;;2.03;;
12925;SDS011;6529;50.566;9.774;2023-11-19T08:36:19;2.60;;;2.20;;
12925;SDS011;6529;50.566;9.774;2023-11-19T08:38:45;4.13;;;2.40;;
12925;SDS011;6529;50.566;9.774;2023-11-19T08:41:11;4.13;;;2.40;;
12925;SDS011;6529;50.566;9.774;2023-11-19T08:43:37;4.13;;;3.00;;
12925;SDS011;6529;50.566;9.774;2023-11-19T08:46:03;4.80;;;2.97;;
12925;SDS011;6529;50.566;9.774;2023-11-19T08:48:34;6.73;;;3.50;;
12925;SDS011;6529;50.566;9.774;2023-11-19T08:50:59;3.10;;;2.80;;
12925;SDS011;6529;50.566;9.774;2023-11-19T08:53:25;3.23;;;2.90;;
12925;SDS011;6529;50.566;9.774;2023-11-19T08:55:50;3.87;;;2.97;;
12925;SDS011;6529;50.566;9.774;2023-11-19T08:58:16;5.73;;;3.27;;
12925;SDS011;6529;50.566;9.774;2023-11-19T09:00:43;4.57;;;3.60;;
12925;SDS011;6529;50.566;9.774;2023-11-19T09:03:09;4.30;;;2.77;;
12925;SDS011;6529;50.566;9.774;2023-11-19T09:05:34;3.10;;;2.40;;
12925;SDS011;6529;50.566;9.774;2023-11-19T09:08:00;5.37;;;2.93;;
12925;SDS011;6529;50.566;9.774;2023-11-19T09:10:25;4.67;;;2.47;;
12925;SDS011;6529;50.566;9.774;2023-11-19T09:12:52;3.97;;;2.33;;
12925;SDS011;6529;50.566;9.774;2023-11-19T09:15:17;4.60;;;2.47;;
12925;SDS011;6529;50.566;9.774;2023-11-19T09:17:43;3.80;;;2.33;;
12925;SDS011;6529;50.566;9.774;2023-11-19T09:20:09;3.20;;;2.00;;
12925;SDS011;6529;50.566;9.774;2023-11-19T09:22:37;3.37;;;2.60;;
12925;SDS011;6529;50.566;9.774;2023-11-19T09:25:03;2.97;;;1.60;;
12925;SDS011;6529;50.566;9.774;2023-11-19T09:27:30;3.37;;;1.90;;
12925;SDS011;6529;50.566;9.774;2023-11-19T09:29:55;5.10;;;2.47;;
12925;SDS011;6529;50.566;9.774;2023-11-19T09:32:23;2.93;;;1.90;;
12925;SDS011;6529;50.566;9.774;2023-11-19T09:34:49;4.13;;;1.70;;
12925;SDS011;6529;50.566;9.774;2023-11-19T09:37:14;5.37;;;1.63;;
12925;SDS011;6529;50.566;9.774;2023-11-19T09:39:40;4.00;;;1.50;;
12925;SDS011;6529;50.566;9.774;2023-11-19T09:42:08;4.03;;;1.73;;
12925;SDS011;6529;50.566;9.774;2023-11-19T09:44:34;4.10;;;2.07;;
12925;SDS011;6529;50.566;9.774;2023-11-19T09:47:02;3.77;;;2.00;;
12925;SDS011;6529;50.566;9.774;2023-11-19T09:49:28;5.43;;;2.97;;
12925;SDS011;6529;50.566;9.774;2023-11-19T09:51:55;6.00;;;3.40;;
12925;SDS011;6529;50.566;9.774;2023-11-19T09:54:20;8.03;;;5.10;;
12925;SDS011;6529;50.566;9.774;2023-11-19T09:56:46;7.93;;;3.50;;
12925;SDS011;6529;50.566;9.774;2023-11-19T09:59:12;4.50;;;2.10;;
12925;SDS011;6529;50.566;9.774;2023-11-19T10:01:38;3.90;;;1.77;;
12925;SDS011;6529;50.566;9.774;2023-11-19T10:04:05;3.90;;;1.60;;
12925;SDS011;6529;50.566;9.774;2023-11-19T10:06:32;3.07;;;2.03;;
12925;SDS011;6529;50.566;9.774;2023-11-19T10:08:57;3.23;;;1.73;;
12925;SDS011;6529;50.566;9.774;2023-11-19T10:11:24;4.03;;;1.40;;
12925;SDS011;6529;50.566;9.774;2023-11-19T10:13:51;5.73;;;3.83;;
12925;SDS011;6529;50.566;9.774;2023-11-19T10:16:18;5.57;;;2.00;;
12925;SDS011;6529;50.566;9.774;2023-11-19T10:18:47;4.70;;;1.47;;
12925;SDS011;6529;50.566;9.774;2023-11-19T10:21:14;5.40;;;2.20;;
12925;SDS011;6529;50.566;9.774;2023-11-19T10:23:51;5.13;;;2.10;;
12925;SDS011;6529;50.566;9.774;2023-11-19T10:26:18;7.47;;;2.33;;
12925;SDS011;6529;50.566;9.774;2023-11-19T10:28:48;7.53;;;1.90;;
12925;SDS011;6529;50.566;9.774;2023-11-19T10:31:19;2.67;;;1.37;;
12925;SDS011;6529;50.566;9.774;2023-11-19T10:33:49;6.60;;;2.50;;
12925;SDS011;6529;50.566;9.774;2023-11-19T10:36:15;4.87;;;2.10;;
12925;SDS011;6529;50.566;9.774;2023-11-19T10:38:51;4.37;;;1.70;;
12925;SDS011;6529;50.566;9.774;2023-11-19T10:41:30;4.07;;;1.40;;
12925;SDS011;6529;50.566;9.774;2023-11-19T10:43:57;8.07;;;1.93;;
12925;SDS011;6529;50.566;9.774;2023-11-19T10:46:38;9.50;;;2.00;;
12925;SDS011;6529;50.566;9.774;2023-11-19T10:49:05;4.17;;;1.70;;
12925;SDS011;6529;50.566;9.774;2023-11-19T10:51:32;4.87;;;1.60;;
12925;SDS011;6529;50.566;9.774;2023-11-19T10:54:02;5.75;;;1.80;;
12925;SDS011;6529;50.566;9.774;2023-11-19T10:56:31;3.73;;;1.40;;
12925;SDS011;6529;50.566;9.774;2023-11-19T10:58:57;4.17;;;1.77;;
12925;SDS011;6529;50.566;9.774;2023-11-19T11:01:25;7.43;;;1.90;;
12925;SDS011;6529;50.566;9.774;2023-11-19T11:03:58;5.57;;;1.90;;
12925;SDS011;6529;50.566;9.774;2023-11-19T11:06:25;7.53;;;2.03;;
12925;SDS011;6529;50.566;9.774;2023-11-19T11:08:52;5.50;;;1.90;;
12925;SDS011;6529;50.566;9.774;2023-11-19T11:11:19;6.47;;;2.10;;
12925;SDS011;6529;50.566;9.774;2023-11-19T11:13:48;5.27;;;1.50;;
12925;SDS011;6529;50.566;9.774;2023-11-19T11:16:15;4.77;;;1.63;;
12925;SDS011;6529;50.566;9.774;2023-11-19T11:18:44;6.87;;;1.60;;
12925;SDS011;6529;50.566;9.774;2023-11-19T11:21:15;4.93;;;1.40;;
12925;SDS011;6529;50.566;9.774;2023-11-19T11:37:44;7.60;;;2.40;;
12925;SDS011;6529;50.566;9.774;2023-11-19T11:40:16;6.50;;;1.87;;
12925;SDS011;6529;50.566;9.774;2023-11-19T11:42:46;8.27;;;1.90;;
12925;SDS011;6529;50.566;9.774;2023-11-19T11:45:12;6.87;;;1.60;;
12925;SDS011;6529;50.566;9.774;2023-11-19T11:50:08;7.23;;;1.87;;
12925;SDS011;6529;50.566;9.774;2023-11-19T11:55:28;5.57;;;1.70;;
12925;SDS011;6529;50.566;9.774;2023-11-19T11:57:57;8.07;;;2.17;;
12925;SDS011;6529;50.566;9.774;2023-11-19T12:00:27;7.93;;;2.10;;
12925;SDS011;6529;50.566;9.774;2023-11-19T12:02:57;7.63;;;2.20;;
12925;SDS011;6529;50.566;9.774;2023-11-19T12:05:25;8.37;;;1.97;;
12925;SDS011;6529;50.566;9.774;2023-11-19T12:07:54;8.57;;;2.00;;
12925;SDS011;6529;50.566;9.774;2023-11-19T12:10:37;7.53;;;2.00;;
12925;SDS011;6529;50.566;9.774;2023-11-19T12:13:08;8.37;;;2.20;;
12925;SDS011;6529;50.566;9.774;2023-11-19T12:18:26;4.90;;;1.97;;
12925;SDS011;6529;50.566;9.774;2023-11-19T12:20:53;7.57;;;1.80;;
12925;SDS011;6529;50.566;9.774;2023-11-19T12:23:18;7.30;;;1.90;;
12925;SDS011;6529;50.566;9.774;2023-11-19T12:25:44;9.10;;;2.27;;
12925;SDS011;6529;50.566;9.774;2023-11-19T12:28:13;6.43;;;2.07;;
12925;SDS011;6529;50.566;9.774;2023-11-19T12:30:42;7.70;;;1.83;;
12925;SDS011;6529;50.566;9.774;2023-11-19T12:33:09;7.63;;;1.80;;
12925;SDS011;6529;50.566;9.774;2023-11-19T12:35:42;6.37;;;1.93;;
12925;SDS011;6529;50.566;9.774;2023-11-19T12:38:24;9.20;;;2.53;;
12925;SDS011;6529;50.566;9.774;2023-11-19T12:41:03;7.17;;;2.30;;
12925;SDS011;6529;50.566;9.774;2023-11-19T12:43:29;6.67;;;2.50;;
12925;SDS011;6529;50.566;9.774;2023-11-19T12:45:55;5.67;;;1.90;;
12925;SDS011;6529;50.566;9.774;2023-11-19T12:48:21;6.30;;;2.10;;
12925;SDS011;6529;50.566;9.774;2023-11-19T12:50:50;7.87;;;2.07;;
12925;SDS011;6529;50.566;9.774;2023-11-19T12:53:22;8.23;;;2.30;;
12925;SDS011;6529;50.566;9.774;2023-11-19T12:55:49;6.67;;;2.30;;
12925;SDS011;6529;50.566;9.774;2023-11-19T12:58:31;5.03;;;1.70;;
12925;SDS011;6529;50.566;9.774;2023-11-19T13:01:07;7.97;;;2.00;;
12925;SDS011;6529;50.566;9.774;2023-11-19T13:03:36;5.37;;;1.60;;
12925;SDS011;6529;50.566;9.774;2023-11-19T13:08:35;6.53;;;1.87;;
12925;SDS011;6529;50.566;9.774;2023-11-19T13:11:13;9.17;;;2.20;;
12925;SDS011;6529;50.566;9.774;2023-11-19T13:16:21;6.90;;;1.80;;
12925;SDS011;6529;50.566;9.774;2023-11-19T13:18:47;9.83;;;4.10;;
12925;SDS011;6529;50.566;9.774;2023-11-19T13:21:12;7.90;;;2.10;;
12925;SDS011;6529;50.566;9.774;2023-11-19T13:23:38;7.23;;;2.30;;
12925;SDS011;6529;50.566;9.774;2023-11-19T13:26:04;7.60;;;2.10;;
12925;SDS011;6529;50.566;9.774;2023-11-19T13:28:29;7.33;;;3.10;;
12925;SDS011;6529;50.566;9.774;2023-11-19T13:30:55;7.37;;;2.83;;
12925;SDS011;6529;50.566;9.774;2023-11-19T13:33:21;5.97;;;1.93;;
12925;SDS011;6529;50.566;9.774;2023-11-19T13:35:46;8.07;;;2.80;;
12925;SDS011;6529;50.566;9.774;2023-11-19T13:38:12;10.17;;;3.53;;
12925;SDS011;6529;50.566;9.774;2023-11-19T13:40:38;7.37;;;1.90;;
12925;SDS011;6529;50.566;9.774;2023-11-19T13:43:04;7.13;;;2.10;;
12925;SDS011;6529;50.566;9.774;2023-11-19T13:45:30;12.40;;;4.63;;
12925;SDS011;6529;50.566;9.774;2023-11-19T13:47:55;7.23;;;3.77;;
12925;SDS011;6529;50.566;9.774;2023-11-19T13:50:21;9.30;;;2.60;;
12925;SDS011;6529;50.566;9.774;2023-11-19T13:52:47;9.47;;;2.50;;
12925;SDS011;6529;50.566;9.774;2023-11-19T13:55:13;4.33;;;1.67;;
12925;SDS011;6529;50.566;9.774;2023-11-19T13:57:40;5.47;;;1.90;;
12925;SDS011;6529;50.566;9.774;2023-11-19T14:00:07;7.57;;;2.67;;
12925;SDS011;6529;50.566;9.774;2023-11-19T14:02:44;10.50;;;3.50;;
12925;SDS011;6529;50.566;9.774;2023-11-19T14:05:13;8.23;;;2.60;;
12925;SDS011;6529;50.566;9.774;2023-11-19T14:07:43;11.03;;;3.93;;
12925;SDS011;6529;50.566;9.774;2023-11-19T14:10:09;7.57;;;2.63;;
12925;SDS011;6529;50.566;9.774;2023-11-19T14:12:36;20.97;;;9.60;;
12925;SDS011;6529;50.566;9.774;2023-11-19T14:15:03;10.73;;;3.73;;
12925;SDS011;6529;50.566;9.774;2023-11-19T14:17:31;7.60;;;2.87;;
12925;SDS011;6529;50.566;9.774;2023-11-19T14:19:57;10.70;;;3.77;;
12925;SDS011;6529;50.566;9.774;2023-11-19T14:22:22;7.83;;;2.97;;
12925;SDS011;6529;50.566;9.774;2023-11-19T14:24:48;10.77;;;3.47;;
12925;SDS011;6529;50.566;9.774;2023-11-19T14:27:13;8.77;;;2.03;;
12925;SDS011;6529;50.566;9.774;2023-11-19T14:29:39;9.03;;;2.33;;
12925;SDS011;6529;50.566;9.774;2023-11-19T14:32:05;5.90;;;2.17;;
12925;SDS011;6529;50.566;9.774;2023-11-19T14:34:31;9.30;;;2.33;;
12925;SDS011;6529;50.566;9.774;2023-11-19T14:36:57;6.17;;;2.07;;
12925;SDS011;6529;50.566;9.774;2023-11-19T14:39:23;8.70;;;2.70;;
12925;SDS011;6529;50.566;9.774;2023-11-19T14:41:49;8.90;;;2.47;;
12925;SDS011;6529;50.566;9.774;2023-11-19T14:44:15;7.77;;;2.87;;
12925;SDS011;6529;50.566;9.774;2023-11-19T14:46:41;6.77;;;2.97;;
12925;SDS011;6529;50.566;9.774;2023-11-19T14:49:07;7.23;;;2.30;;
12925;SDS011;6529;50.566;9.774;2023-11-19T14:51:35;6.10;;;2.20;;
12925;SDS011;6529;50.566;9.774;2023-11-19T14:54:02;8.33;;;2.10;;
12925;SDS011;6529;50.566;9.774;2023-11-19T14:56:29;5.63;;;1.77;;
12925;SDS011;6529;50.566;9.774;2023-11-19T14:58:54;5.63;;;2.20;;
12925;SDS011;6529;50.566;9.774;2023-11-19T15:01:20;7.90;;;2.10;;
12925;SDS011;6529;50.566;9.774;2023-11-19T15:03:45;6.20;;;1.90;;
12925;SDS011;6529;50.566;9.774;2023-11-19T15:06:11;9.37;;;1.97;;
12925;SDS011;6529;50.566;9.774;2023-11-19T15:08:37;9.13;;;2.13;;
12925;SDS011;6529;50.566;9.774;2023-11-19T15:11:03;7.40;;;2.00;;
12925;SDS011;6529;50.566;9.774;2023-11-19T15:13:31;8.53;;;2.93;;
12925;SDS011;6529;50.566;9.774;2023-11-19T15:15:57;5.57;;;1.77;;
12925;SDS011;6529;50.566;9.774;2023-11-19T15:18:23;8.10;;;2.23;;
12925;SDS011;6529;50.566;9.774;2023-11-19T15:20:48;6.30;;;2.57;;
12925;SDS011;6529;50.566;9.774;2023-11-19T15:23:14;6.40;;;1.97;;
12925;SDS011;6529;50.566;9.774;2023-11-19T15:25:40;2.67;;;1.23;;